Time;durP1;ratioP1;P1;durP2;ratioP2;P2;SDS_P1;SDS_P2;PMS_P1;PMS_P2;Temp;Humidity;BMP_temperature;BMP_pressure;BME280_temperature;BME280_humidity;BME280_pressure;Samples;Min_cycle;Max_cycle;Signal;HPM_P1;HPM_P2
2022/05/16 09:38:33;;;;;;;;;2.00;2.00;;;;;36.24;100.00;101373.81;4293340;31;2902144;-57
2022/05/16 09:41:54;;;;;;;;;5.25;2.50;;;;;36.33;100.00;101378.38;5119034;27;51118;-56
2022/05/16 09:44:48;;;;;;;;;2.75;1.00;;;;;36.35;100.00;101378.22;5118635;27;51161;-58
2022/05/16 09:47:34;;;;;;;;;5.00;1.50;;;;;36.35;100.00;101375.44;5099461;27;51203;-57
2022/05/16 09:50:28;;;;;;;;;3.50;1.75;;;;;36.34;100.00;101379.25;5118516;27;51219;-58
2022/05/16 09:53:36;;;;;;;;;3.50;3.25;;;;;36.30;100.00;101387.00;5101787;27;51267;-57
2022/05/16 10:04:28;;;;;;;;;4.00;4.00;;;;;36.21;100.00;101372.19;5058184;28;51311;-57
2022/05/16 10:07:14;;;;;;;;;5.75;5.50;;;;;36.27;100.00;101377.13;5060490;28;51251;-57
2022/05/16 10:09:59;;;;;;;;;6.50;5.00;;;;;36.28;100.00;101376.09;5042843;28;51408;-57
2022/05/16 10:12:44;;;;;;;;;6.00;3.50;;;;;36.23;100.00;101378.47;5074540;28;51223;-58
2022/05/16 10:15:31;;;;;;;;;3.50;2.00;;;;;36.24;100.00;101377.44;5073891;28;51396;-57
2022/05/16 10:18:19;;;;;;;;;5.00;2.75;;;;;36.27;100.00;101379.00;5071363;28;51369;-57
2022/05/16 10:21:09;;;;;;;;;5.50;2.25;;;;;36.26;100.00;101375.38;5056551;28;51219;-57
2022/05/16 10:23:53;;;;;;;;;2.25;1.50;;;;;36.25;100.00;101375.53;5046038;28;51228;-57
2022/05/16 10:26:42;;;;;;;;;5.00;2.00;;;;;36.26;100.00;101378.16;5073991;28;51086;-57
2022/05/16 10:29:29;;;;;;;;;2.25;2.00;;;;;36.19;100.00;101377.06;5075280;28;51138;-57
2022/05/16 10:36:03;;;;;;;;;3.00;1.25;;;;;35.94;100.00;101373.16;5052312;28;51348;-57
2022/05/16 10:39:18;;;;;;;;;4.00;2.75;;;;;35.91;100.00;101360.47;5073988;28;51091;-57
2022/05/16 10:42:26;;;;;;;;;3.25;1.50;;;;;35.90;100.00;101360.63;5067391;28;51303;-57
2022/05/16 10:45:19;;;;;;;;;2.00;1.75;;;;;35.83;100.00;101347.41;5073888;28;51231;-55
2022/05/16 10:48:41;;;;;;;;;4.75;1.25;;;;;35.85;100.00;101347.28;5071994;28;51241;-57
2022/05/16 10:51:44;;;;;;;;;4.75;3.00;;;;;35.91;100.00;101343.84;4959625;28;51191;-57
2022/05/16 10:54:32;;;;;;;;;2.25;2.25;;;;;35.94;100.00;101345.47;5061868;28;51402;-57
2022/05/16 10:57:33;;;;;;;;;2.00;2.00;;;;;35.91;100.00;101349.41;5043537;28;51152;-57
2022/05/16 11:00:20;;;;;;;;;4.25;4.00;;;;;35.86;100.00;101348.13;5044179;28;51201;-57
2022/05/16 11:03:43;;;;;;;;;1.75;1.50;;;;;35.79;100.00;101336.81;5061580;28;51082;-57
2022/05/16 11:06:37;;;;;;;;;4.75;2.25;;;;;35.83;100.00;101335.47;5056999;28;51343;-57
2022/05/16 11:09:37;;;;;;;;;5.50;2.00;;;;;35.79;100.00;101328.50;5061701;28;51497;-57
2022/05/16 11:12:44;;;;;;;;;3.00;3.00;;;;;35.74;100.00;101336.44;5045744;28;51128;-57
2022/05/16 11:15:36;;;;;;;;;6.75;3.00;;;;;35.72;100.00;101319.09;5046068;28;51198;-57
2022/05/16 11:18:32;;;;;;;;;1.50;0.75;;;;;35.64;100.00;101326.28;5041770;28;51645;-56
2022/05/16 11:21:49;;;;;;;;;2.00;2.00;;;;;35.59;100.00;101328.66;5043042;28;51582;-56
2022/05/16 11:24:55;;;;;;;;;1.25;1.00;;;;;35.53;100.00;101323.75;5056845;28;51203;-56
2022/05/16 11:28:07;;;;;;;;;3.00;1.00;;;;;35.52;100.00;101325.63;5058834;28;51049;-57
2022/05/16 11:31:01;;;;;;;;;3.75;2.25;;;;;35.48;100.00;101306.72;5060117;28;52383;-57
2022/05/16 11:33:52;;;;;;;;;1.25;1.25;;;;;35.52;100.00;101308.16;5045399;28;51265;-57
2022/05/16 11:36:39;;;;;;;;;3.00;3.00;;;;;35.55;100.00;101318.94;5039659;28;51349;-57
2022/05/16 11:39:39;;;;;;;;;2.50;2.50;;;;;35.55;100.00;101302.34;5055649;28;51187;-55
2022/05/16 11:43:09;;;;;;;;;4.50;2.00;;;;;35.49;100.00;101303.81;5046902;28;51192;-58
2022/05/16 11:46:06;;;;;;;;;4.00;1.25;;;;;35.35;100.00;101301.53;5044466;28;51543;-56
2022/05/16 11:48:54;;;;;;;;;6.50;1.50;;;;;35.33;100.00;101298.06;5034354;28;51429;-57
2022/05/16 11:51:53;;;;;;;;;2.75;1.75;;;;;35.35;100.00;101296.00;5036747;28;51254;-55
2022/05/16 11:54:41;;;;;;;;;4.50;1.00;;;;;35.27;100.00;101290.38;5035939;28;51122;-57
2022/05/16 12:00:40;;;;;;;;;3.00;2.25;;;;;35.31;100.00;101284.38;5040084;28;51204;-56
2022/05/16 12:03:43;;;;;;;;;3.75;1.00;;;;;35.29;100.00;101280.91;5058670;28;51505;-56
2022/05/16 12:06:37;;;;;;;;;3.50;2.00;;;;;35.33;100.00;101270.38;5045990;28;51168;-56
2022/05/16 12:09:26;;;;;;;;;2.00;2.00;;;;;35.39;100.00;101267.03;5058815;28;51318;-56
2022/05/16 12:12:13;;;;;;;;;7.50;5.00;;;;;35.51;100.00;101270.44;5054494;28;51159;-55
2022/05/16 12:15:17;;;;;;;;;27.75;25.75;;;;;35.62;100.00;101264.69;5036491;28;51617;-55
2022/05/16 12:18:08;;;;;;;;;12.75;11.00;;;;;35.69;100.00;101259.41;5043234;28;51517;-56
2022/05/16 12:21:20;;;;;;;;;8.50;7.00;;;;;35.79;100.00;101262.94;5039280;28;51106;-56
2022/05/16 12:24:46;;;;;;;;;6.00;4.50;;;;;35.94;100.00;101270.69;5042605;28;51120;-56
2022/05/16 12:27:38;;;;;;;;;3.00;2.00;;;;;35.80;100.00;101256.38;5045302;28;51450;-56
2022/05/16 12:30:22;;;;;;;;;2.75;2.75;;;;;35.70;100.00;101258.38;5045173;28;51099;-56
2022/05/16 12:33:32;;;;;;;;;5.00;2.50;;;;;35.71;100.00;101256.44;5045477;28;51189;-56
2022/05/16 12:36:21;;;;;;;;;7.75;4.75;;;;;35.77;100.00;101251.16;5041907;28;51118;-57
2022/05/16 12:39:18;;;;;;;;;1.75;1.00;;;;;35.89;100.00;101250.91;5050006;28;51343;-57
2022/05/16 12:42:42;;;;;;;;;6.75;2.75;;;;;35.93;100.00;101250.47;5043317;28;51182;-55
2022/05/16 12:45:49;;;;;;;;;4.25;3.00;;;;;35.94;100.00;101240.25;5025879;28;51213;-55
2022/05/16 12:48:36;;;;;;;;;3.50;2.25;;;;;35.83;100.00;101241.34;5044350;28;51064;-55
2022/05/16 12:51:42;;;;;;;;;2.75;2.00;;;;;35.74;100.00;101234.00;5056913;28;51121;-56
2022/05/16 12:54:46;;;;;;;;;3.00;1.75;;;;;35.47;100.00;101217.31;5059681;28;51087;-56
2022/05/16 12:57:36;;;;;;;;;4.50;2.50;;;;;35.44;100.00;101214.00;5057579;28;51322;-56
2022/05/16 13:00:44;;;;;;;;;4.25;1.25;;;;;35.32;100.00;101207.78;5059306;28;51070;-57
2022/05/16 13:03:39;;;;;;;;;3.50;1.50;;;;;35.31;100.00;101212.47;5025336;28;51222;-56
2022/05/16 13:06:45;;;;;;;;;1.25;1.00;;;;;35.29;100.00;101203.44;5043526;28;51488;-56
2022/05/16 13:10:09;;;;;;;;;4.00;3.00;;;;;35.28;100.00;101195.31;5045130;28;51411;-57
2022/05/16 13:13:05;;;;;;;;;4.00;2.25;;;;;35.26;100.00;101198.22;5054485;28;51231;-57
2022/05/16 13:16:07;;;;;;;;;4.25;1.00;;;;;35.24;100.00;101186.44;5039047;28;51112;-55
2022/05/16 13:19:06;;;;;;;;;4.25;1.25;;;;;35.21;100.00;101178.47;5043322;28;51495;-56
2022/05/16 13:21:55;;;;;;;;;8.00;4.00;;;;;35.24;100.00;101174.53;5059151;28;52048;-55
2022/05/16 13:24:40;;;;;;;;;6.75;3.50;;;;;35.25;100.00;101184.56;5057165;28;51397;-54
2022/05/16 13:30:32;;;;;;;;;3.25;2.00;;;;;35.25;100.00;101167.97;5040282;28;51250;-57
2022/05/16 13:33:27;;;;;;;;;2.75;2.75;;;;;35.17;100.00;101144.75;5035050;28;51403;-56
2022/05/16 13:36:15;;;;;;;;;4.75;3.25;;;;;35.28;100.00;101164.91;5049539;28;51191;-56
2022/05/16 13:39:06;;;;;;;;;3.25;1.50;;;;;35.37;100.00;101159.25;5056588;28;51401;-56
2022/05/16 13:41:59;;;;;;;;;3.75;2.75;;;;;35.53;100.00;101157.72;5055730;28;51165;-55
2022/05/16 13:44:45;;;;;;;;;6.25;3.50;;;;;35.59;100.00;101148.75;5043485;28;51474;-57
2022/05/16 13:47:31;;;;;;;;;4.25;3.50;;;;;35.66;100.00;101155.38;5060314;28;51336;-57
2022/05/16 13:50:25;;;;;;;;;2.25;2.00;;;;;35.68;100.00;101142.25;5056785;28;51377;-57
2022/05/16 13:53:17;;;;;;;;;3.25;2.50;;;;;35.66;100.00;101135.16;5052571;28;51160;-56
2022/05/16 13:56:02;;;;;;;;;8.50;6.25;;;;;35.61;100.00;101135.63;5067672;28;51193;-56
2022/05/16 13:58:47;;;;;;;;;15.50;11.75;;;;;35.58;100.00;101127.66;5059427;28;51109;-57
2022/05/16 14:01:32;;;;;;;;;6.00;4.75;;;;;35.48;100.00;101124.09;5063558;28;51350;-57
2022/05/16 14:04:21;;;;;;;;;5.25;3.00;;;;;35.42;100.00;101122.84;5046061;28;51060;-56
2022/05/16 14:07:14;;;;;;;;;4.50;3.00;;;;;35.42;100.00;101113.69;5048838;28;50996;-57
2022/05/16 14:10:06;;;;;;;;;6.00;3.00;;;;;35.39;100.00;101114.84;5057658;28;51860;-55
2022/05/16 14:13:02;;;;;;;;;11.00;3.00;;;;;35.39;100.00;101106.56;5045878;28;51217;-57
2022/05/16 14:15:53;;;;;;;;;4.50;2.25;;;;;35.37;100.00;101111.38;5044208;28;51291;-55
2022/05/16 14:18:37;;;;;;;;;3.75;2.25;;;;;35.33;100.00;101119.13;5042086;28;51186;-57
2022/05/16 14:21:26;;;;;;;;;3.75;2.75;;;;;35.27;100.00;101110.59;5060253;28;51149;-55
2022/05/16 14:24:13;;;;;;;;;3.25;2.50;;;;;35.19;100.00;101108.63;5033278;28;51021;-57
2022/05/16 14:26:58;;;;;;;;;5.25;3.50;;;;;35.22;100.00;101108.31;5038315;28;51302;-55
2022/05/16 14:29:56;;;;;;;;;3.00;3.00;;;;;35.30;100.00;101105.63;5041667;28;51599;-56
2022/05/16 14:32:50;;;;;;;;;32.50;24.00;;;;;35.38;100.00;101099.28;5058933;28;51033;-55
2022/05/16 14:35:36;;;;;;;;;7.00;4.50;;;;;35.42;100.00;101100.72;5062302;28;51553;-56
2022/05/16 14:38:21;;;;;;;;;4.50;3.25;;;;;35.30;100.00;101104.72;5058261;28;51146;-55
2022/05/16 14:41:12;;;;;;;;;8.75;4.00;;;;;35.21;100.00;101099.13;5059129;28;51352;-57
2022/05/16 14:44:06;;;;;;;;;6.75;4.00;;;;;35.16;100.00;101092.34;5047073;28;51127;-56
2022/05/16 14:47:02;;;;;;;;;11.00;7.50;;;;;35.18;100.00;101106.88;5051916;28;51210;-56
2022/05/16 14:49:47;;;;;;;;;8.50;4.25;;;;;35.15;100.00;101094.25;5059809;28;51215;-57
2022/05/16 14:52:33;;;;;;;;;6.00;2.75;;;;;35.14;100.00;101077.78;5055174;28;51432;-55
2022/05/16 14:55:31;;;;;;;;;2.50;2.25;;;;;35.17;100.00;101088.53;5059159;28;51282;-56
2022/05/16 14:58:16;;;;;;;;;7.75;5.00;;;;;35.21;100.00;101089.97;5057372;28;51308;-57
2022/05/16 15:04:04;;;;;;;;;4.00;3.00;;;;;35.12;100.00;101074.34;5061888;28;51176;-57
2022/05/16 15:06:49;;;;;;;;;5.75;3.25;;;;;34.96;100.00;101066.75;5044414;28;51373;-56
2022/05/16 15:09:34;;;;;;;;;5.00;3.50;;;;;34.75;100.00;101054.09;5045659;28;51106;-55
2022/05/16 15:12:19;;;;;;;;;5.00;3.00;;;;;34.67;100.00;101071.44;5057107;28;51095;-56
2022/05/16 15:15:05;;;;;;;;;6.25;5.00;;;;;34.58;100.00;101058.56;5052106;28;51036;-56
2022/05/16 15:17:49;;;;;;;;;4.50;3.75;;;;;34.53;100.00;101063.66;5057662;28;51219;-56
2022/05/16 15:20:35;;;;;;;;;6.50;3.00;;;;;34.46;100.00;101052.38;5055058;28;51103;-55
2022/05/16 15:23:24;;;;;;;;;8.00;4.00;;;;;34.41;100.00;101052.84;5047295;28;51111;-55
2022/05/16 15:26:09;;;;;;;;;10.75;4.50;;;;;34.33;100.00;101036.13;5060150;28;51039;-56
2022/05/16 15:28:53;;;;;;;;;2.25;2.00;;;;;34.31;100.00;101032.66;5038487;28;51105;-56
2022/05/16 15:31:38;;;;;;;;;4.25;4.25;;;;;34.29;100.00;101043.88;5053997;28;51120;-56
2022/05/16 15:34:23;;;;;;;;;8.00;4.00;;;;;34.30;100.00;101041.97;5057948;28;51115;-57
2022/05/16 15:37:12;;;;;;;;;8.00;4.25;;;;;34.30;100.00;101036.44;5021026;28;51216;-57
2022/05/16 15:39:58;;;;;;;;;5.00;4.25;;;;;34.26;100.00;101041.41;5044351;28;51130;-57
2022/05/16 15:42:42;;;;;;;;;7.00;4.25;;;;;34.19;100.00;101029.25;5042309;28;52902;-55
2022/05/16 15:45:29;;;;;;;;;3.50;3.50;;;;;34.16;100.00;101029.53;5046874;28;51265;-56
2022/05/16 15:48:17;;;;;;;;;5.50;5.50;;;;;34.16;100.00;101020.41;5022957;28;51358;-58
2022/05/16 15:51:08;;;;;;;;;8.25;5.00;;;;;34.18;100.00;101021.13;5028554;28;51189;-57
2022/05/16 15:53:53;;;;;;;;;7.00;2.50;;;;;34.04;100.00;101004.03;5041470;28;51075;-56
2022/05/16 15:56:38;;;;;;;;;7.25;4.00;;;;;34.00;100.00;101016.41;5053751;28;51138;-57
2022/05/16 15:59:24;;;;;;;;;6.00;3.75;;;;;33.98;100.00;101018.44;5054950;28;51101;-57
2022/05/16 16:02:17;;;;;;;;;7.00;3.25;;;;;33.96;100.00;101017.75;5047975;27;50969;-54
2022/05/16 16:11:09;;;;;;;;;4.00;3.25;;;;;34.01;100.00;101031.09;5050794;27;51225;-56
2022/05/16 16:13:54;;;;;;;;;5.50;5.50;;;;;33.99;100.00;101036.75;5052317;27;51245;-57
2022/05/16 16:16:41;;;;;;;;;9.00;5.00;;;;;33.98;100.00;101032.25;5028500;28;51175;-58
2022/05/16 16:19:27;;;;;;;;;9.75;7.75;;;;;33.96;100.00;101039.84;5045844;27;51238;-56
2022/05/16 16:22:12;;;;;;;;;6.00;4.75;;;;;33.97;100.00;101042.44;5057792;27;51172;-56
2022/05/16 16:24:57;;;;;;;;;7.25;7.00;;;;;33.91;100.00;101032.00;5051679;27;51202;-57
2022/05/16 16:27:43;;;;;;;;;2.75;1.25;;;;;33.94;100.00;101037.19;5054208;27;51246;-56
2022/05/16 16:30:28;;;;;;;;;12.00;8.25;;;;;33.94;100.00;101045.47;5056865;27;51281;-57
2022/05/16 16:33:13;;;;;;;;;6.25;4.25;;;;;33.89;100.00;101041.44;5046307;28;51441;-57
2022/05/16 16:35:58;;;;;;;;;9.25;7.00;;;;;33.80;100.00;101049.56;5021729;28;51243;-56
2022/05/16 16:38:45;;;;;;;;;6.25;5.00;;;;;33.71;100.00;101038.56;5038046;28;51064;-57
2022/05/16 16:41:29;;;;;;;;;12.25;6.25;;;;;33.69;100.00;101041.47;5044686;28;50870;-57
2022/05/16 16:44:16;;;;;;;;;7.00;5.50;;;;;33.60;100.00;101040.47;5027623;28;51294;-56
2022/05/16 16:47:13;;;;;;;;;8.25;5.00;;;;;33.51;100.00;101039.50;5038816;28;52669;-55
2022/05/16 16:49:58;;;;;;;;;4.75;3.00;;;;;33.42;100.00;101042.28;5030737;28;51246;-57
2022/05/16 16:58:49;;;;;;;;;8.25;5.75;;;;;33.28;100.00;101047.19;5055835;28;51577;-57
2022/05/16 17:01:36;;;;;;;;;8.25;6.00;;;;;33.28;100.00;101052.69;5058916;28;51117;-57
2022/05/16 17:04:21;;;;;;;;;9.00;6.25;;;;;33.25;100.00;101043.84;5058386;28;51106;-57
2022/05/16 17:07:07;;;;;;;;;6.75;5.25;;;;;33.20;100.00;101030.50;5038503;28;51088;-55
2022/05/16 17:09:52;;;;;;;;;11.75;7.00;;;;;33.20;100.00;101047.06;5050148;28;51053;-56
2022/05/16 17:12:37;;;;;;;;;6.50;5.25;;;;;33.14;100.00;101033.88;5034466;28;51620;-56
2022/05/16 17:15:23;;;;;;;;;13.00;8.25;;;;;33.11;100.00;101039.66;5055963;28;51158;-55
2022/05/16 17:18:08;;;;;;;;;5.25;4.50;;;;;33.06;100.00;101031.84;5040599;28;51166;-57
2022/05/16 17:20:53;;;;;;;;;8.75;6.00;;;;;33.03;100.00;101032.13;5059592;28;51196;-56
2022/05/16 17:23:37;;;;;;;;;9.00;8.25;;;;;32.98;100.00;101024.28;5060025;28;51478;-57
2022/05/16 17:26:23;;;;;;;;;7.75;7.25;;;;;32.95;100.00;101024.59;5059855;28;51107;-55
2022/05/16 17:29:08;;;;;;;;;8.25;6.25;;;;;32.91;100.00;101026.75;5060217;28;51168;-57
2022/05/16 17:31:53;;;;;;;;;8.50;5.00;;;;;32.89;100.00;101027.91;5059774;28;51522;-57
2022/05/16 17:34:40;;;;;;;;;11.00;5.50;;;;;32.89;100.00;101034.31;5059929;28;51173;-56
2022/05/16 17:37:25;;;;;;;;;5.25;5.00;;;;;32.81;100.00;101025.03;5059949;28;51191;-56
2022/05/16 17:40:11;;;;;;;;;5.00;5.00;;;;;32.76;100.00;101015.25;5059717;28;51245;-56
2022/05/16 17:42:56;;;;;;;;;9.00;3.50;;;;;32.67;100.00;101002.34;5059532;28;51584;-57
2022/05/16 17:45:40;;;;;;;;;9.00;4.50;;;;;32.64;100.00;101010.03;5043408;28;51115;-57
2022/05/16 17:48:25;;;;;;;;;5.75;5.25;;;;;32.49;100.00;100991.16;5040946;28;51092;-57
2022/05/16 17:51:23;;;;;;;;;5.25;4.50;;;;;32.57;100.00;101010.63;5059551;28;51107;-57
2022/05/16 17:54:11;;;;;;;;;10.75;6.25;;;;;32.54;100.00;101021.94;5055998;28;51077;-57
2022/05/16 17:56:57;;;;;;;;;10.50;5.75;;;;;32.49;100.00;101020.59;5043907;28;51206;-57
2022/05/16 17:59:42;;;;;;;;;10.25;7.75;;;;;32.48;100.00;101021.63;5045651;28;51112;-56
2022/05/16 18:02:29;;;;;;;;;8.00;5.75;;;;;32.48;100.00;101039.03;5063801;28;51506;-57
2022/05/16 18:05:15;;;;;;;;;5.50;5.00;;;;;32.44;100.00;101034.81;5063409;28;51104;-56
2022/05/16 18:08:01;;;;;;;;;9.75;7.00;;;;;32.40;100.00;101036.97;5043765;28;51252;-57
2022/05/16 18:13:53;;;;;;;;;12.00;7.75;;;;;32.39;100.00;101051.75;5054450;28;51093;-58
2022/05/16 18:16:39;;;;;;;;;10.75;9.50;;;;;32.39;100.00;101053.63;5031519;28;51280;-57
2022/05/16 18:19:26;;;;;;;;;12.00;10.00;;;;;32.39;100.00;101056.38;5063171;28;51158;-56
2022/05/16 18:22:11;;;;;;;;;14.75;7.25;;;;;32.37;100.00;101051.03;5049624;27;51420;-57
2022/05/16 18:25:00;;;;;;;;;10.75;10.00;;;;;32.33;100.00;101054.19;5068855;27;51174;-56
2022/05/16 18:27:46;;;;;;;;;8.50;7.00;;;;;32.31;100.00;101059.84;5068766;27;51299;-56
2022/05/16 18:30:31;;;;;;;;;14.75;10.50;;;;;32.28;100.00;101074.75;5067718;27;51241;-57
2022/05/16 18:33:16;;;;;;;;;10.75;10.50;;;;;32.26;100.00;101063.03;5065696;27;51539;-56
2022/05/16 18:36:00;;;;;;;;;8.25;6.50;;;;;32.30;100.00;101077.38;5054319;27;51206;-57
2022/05/16 18:38:45;;;;;;;;;8.50;7.50;;;;;32.27;100.00;101075.78;5070275;27;51426;-57
2022/05/16 18:51:13;;;;;;;;;16.50;12.75;;;;;32.30;100.00;101107.66;5069034;27;51153;-56
2022/05/16 18:53:58;;;;;;;;;18.25;14.50;;;;;32.33;100.00;101114.78;5050660;27;51423;-56
2022/05/16 18:56:43;;;;;;;;;12.25;10.00;;;;;32.32;100.00;101130.44;5064759;27;51214;-57
2022/05/16 18:59:27;;;;;;;;;15.75;9.75;;;;;32.29;100.00;101134.31;5069620;27;51243;-57
2022/05/16 19:02:12;;;;;;;;;8.50;8.25;;;;;32.28;100.00;101148.22;5068695;27;51189;-57
2022/05/16 19:04:57;;;;;;;;;9.75;7.50;;;;;32.26;100.00;101170.41;5045084;28;51045;-57
2022/05/16 19:07:41;;;;;;;;;7.75;6.75;;;;;32.23;100.00;101170.63;5062027;28;51183;-57
2022/05/16 19:10:37;;;;;;;;;7.25;5.75;;;;;32.25;100.00;101174.16;5062264;28;51138;-56
2022/05/16 19:13:22;;;;;;;;;12.00;8.25;;;;;32.24;100.00;101177.94;5044365;28;51555;-56
2022/05/16 19:16:06;;;;;;;;;16.75;9.00;;;;;32.23;100.00;101178.00;5062174;28;51287;-57
2022/05/16 19:18:50;;;;;;;;;14.75;9.25;;;;;32.22;100.00;101171.66;5062562;28;51104;-57
2022/05/16 19:21:39;;;;;;;;;9.00;7.25;;;;;32.29;100.00;101203.16;5062141;28;51240;-57
2022/05/16 19:24:23;;;;;;;;;8.75;7.00;;;;;32.25;100.00;101211.81;5046665;28;51148;-57
2022/05/16 19:27:08;;;;;;;;;14.00;8.75;;;;;32.26;100.00;101216.31;5062456;28;51167;-56
2022/05/16 19:32:55;;;;;;;;;7.00;5.75;;;;;32.21;100.00;101218.59;5050355;28;51248;-47
2022/05/16 19:35:40;;;;;;;;;10.25;7.25;;;;;32.04;100.00;101200.81;5058365;28;51348;-47
2022/05/16 19:38:25;;;;;;;;;10.50;8.00;;;;;32.12;100.00;101226.63;5051958;28;51211;-46
2022/05/16 19:41:09;;;;;;;;;18.50;16.25;;;;;32.09;100.00;101237.03;5057806;28;52029;-45
2022/05/16 19:43:56;;;;;;;;;18.25;13.00;;;;;32.07;100.00;101234.44;5059030;28;51126;-45
2022/05/16 19:46:42;;;;;;;;;17.00;7.25;;;;;32.07;100.00;101239.94;5060832;28;51157;-46
2022/05/16 19:49:27;;;;;;;;;6.25;6.25;;;;;31.98;100.00;101230.59;5060418;28;51160;-48
2022/05/16 19:52:13;;;;;;;;;11.75;8.00;;;;;31.97;100.00;101239.84;5036895;28;52230;-45
2022/05/16 19:54:57;;;;;;;;;12.00;6.50;;;;;31.93;100.00;101232.00;5060596;28;51311;-45
2022/05/16 19:57:42;;;;;;;;;12.75;9.50;;;;;31.94;100.00;101234.66;5042867;28;51157;-45
2022/05/16 20:00:26;;;;;;;;;9.00;6.50;;;;;31.95;100.00;101239.16;5055085;28;51140;-46
2022/05/16 20:03:13;;;;;;;;;10.00;8.75;;;;;31.93;100.00;101232.00;5049845;28;51139;-46
2022/05/16 20:05:57;;;;;;;;;14.75;7.00;;;;;31.92;100.00;101233.91;5011141;28;51237;-48
2022/05/16 20:08:42;;;;;;;;;18.50;13.00;;;;;31.92;100.00;101230.25;5014133;28;51137;-46
2022/05/16 20:11:27;;;;;;;;;10.50;7.75;;;;;31.90;100.00;101224.03;5007986;28;51179;-48
2022/05/16 20:14:14;;;;;;;;;9.75;9.00;;;;;31.89;100.00;101216.78;5033875;28;51523;-48
2022/05/16 20:16:58;;;;;;;;;11.75;10.25;;;;;31.88;100.00;101213.16;5018763;28;51179;-44
2022/05/16 20:19:43;;;;;;;;;9.25;6.50;;;;;31.87;100.00;101216.91;5020511;28;51451;-45
2022/05/16 20:25:31;;;;;;;;;8.50;6.75;;;;;31.73;100.00;101225.50;5017768;28;51240;-45
2022/05/16 20:28:17;;;;;;;;;5.50;5.25;;;;;31.82;100.00;101235.69;5019619;28;51093;-46
2022/05/16 20:31:02;;;;;;;;;13.50;12.75;;;;;31.81;100.00;101250.47;5014891;28;51133;-45
2022/05/16 20:33:47;;;;;;;;;8.00;6.50;;;;;31.83;100.00;101259.47;5010281;28;51269;-47
2022/05/16 20:36:31;;;;;;;;;11.25;5.00;;;;;31.82;100.00;101266.81;5009638;28;51183;-45
2022/05/16 20:39:16;;;;;;;;;7.50;7.00;;;;;31.81;100.00;101261.47;5018519;28;51084;-48
2022/05/16 20:42:00;;;;;;;;;12.50;6.25;;;;;31.81;100.00;101267.81;5025304;28;52051;-48
2022/05/16 20:44:45;;;;;;;;;8.25;5.75;;;;;31.81;100.00;101270.59;5025586;28;51470;-48
2022/05/16 20:47:29;;;;;;;;;8.00;5.25;;;;;31.79;100.00;101264.34;5025564;28;51044;-47
2022/05/16 20:50:14;;;;;;;;;8.00;5.50;;;;;31.81;100.00;101272.47;5020422;28;51076;-48
2022/05/16 20:53:00;;;;;;;;;5.75;5.75;;;;;31.77;100.00;101279.22;5015972;28;51120;-47
2022/05/16 20:55:45;;;;;;;;;8.00;6.00;;;;;31.74;100.00;101274.88;5019652;28;51257;-47
2022/05/16 20:58:34;;;;;;;;;7.25;5.50;;;;;31.76;100.00;101277.47;5019982;28;51175;-49
2022/05/16 21:01:18;;;;;;;;;8.25;7.00;;;;;31.74;100.00;101271.25;5020641;28;51151;-47
2022/05/16 21:04:04;;;;;;;;;11.25;5.50;;;;;31.67;100.00;101271.72;5031892;28;51053;-47
2022/05/16 21:06:49;;;;;;;;;13.67;6.67;;;;;31.68;100.00;101273.50;5053605;28;51026;-46
2022/05/16 21:09:33;;;;;;;;;10.50;7.75;;;;;31.69;100.00;101271.66;5060508;28;51453;-50
2022/05/16 21:12:18;;;;;;;;;8.50;6.50;;;;;31.67;100.00;101276.38;5060003;28;51268;-51
2022/05/16 21:15:04;;;;;;;;;9.75;5.25;;;;;31.64;100.00;101268.38;5060041;28;51031;-48
2022/05/16 21:17:50;;;;;;;;;8.50;5.75;;;;;31.62;100.00;101274.03;5059155;28;51244;-45
2022/05/16 21:20:36;;;;;;;;;8.25;6.00;;;;;31.66;100.00;101285.63;5059837;28;51065;-46
2022/05/16 21:23:20;;;;;;;;;10.50;5.75;;;;;31.67;100.00;101282.75;5059762;28;51209;-45
2022/05/16 21:26:04;;;;;;;;;9.00;6.75;;;;;31.66;100.00;101283.75;5059918;28;51125;-48
2022/05/16 21:28:49;;;;;;;;;11.00;7.75;;;;;31.59;100.00;101278.91;5053508;28;51280;-46
2022/05/16 21:31:33;;;;;;;;;7.25;4.00;;;;;31.68;100.00;101294.66;5054676;28;51167;-45
2022/05/16 21:34:18;;;;;;;;;6.75;5.25;;;;;31.60;100.00;101283.38;5058575;28;51510;-46
2022/05/16 21:37:02;;;;;;;;;8.25;5.50;;;;;31.63;100.00;101299.63;5059507;28;51206;-47
2022/05/16 21:39:47;;;;;;;;;4.50;4.00;;;;;31.58;100.00;101297.28;5059770;28;51217;-46
2022/05/16 21:42:32;;;;;;;;;9.00;6.00;;;;;31.59;100.00;101312.78;5059384;28;51079;-46
2022/05/16 21:45:22;;;;;;;;;5.75;4.25;;;;;31.64;100.00;101312.38;5059464;28;51148;-44
2022/05/16 21:48:07;;;;;;;;;7.00;5.00;;;;;31.65;100.00;101326.00;5059497;28;51905;-47
2022/05/16 21:50:53;;;;;;;;;12.50;6.75;;;;;31.67;100.00;101329.50;5059930;28;51150;-45
2022/05/16 21:53:38;;;;;;;;;6.25;5.25;;;;;31.68;100.00;101336.78;5059416;28;51321;-46
2022/05/16 21:56:23;;;;;;;;;9.25;5.00;;;;;31.70;100.00;101330.28;5051748;28;51175;-46
2022/05/16 21:59:07;;;;;;;;;10.00;6.75;;;;;31.66;100.00;101319.50;5056110;28;51307;-45
2022/05/16 22:01:52;;;;;;;;;9.25;5.50;;;;;31.64;100.00;101316.00;5059490;28;51087;-45
2022/05/16 22:04:37;;;;;;;;;10.00;5.50;;;;;31.65;100.00;101304.00;5053714;28;51087;-45
2022/05/16 22:07:22;;;;;;;;;9.25;5.50;;;;;31.64;100.00;101312.38;5051777;28;51091;-46
2022/05/16 22:10:08;;;;;;;;;9.50;5.00;;;;;31.63;100.00;101317.03;5059359;28;51438;-48
2022/05/16 22:12:52;;;;;;;;;3.25;3.25;;;;;31.63;100.00;101313.38;5059330;28;51189;-47
2022/05/16 22:15:38;;;;;;;;;12.25;5.75;;;;;31.62;100.00;101319.88;5059535;28;51169;-46
2022/05/16 22:18:22;;;;;;;;;6.75;4.50;;;;;31.59;100.00;101321.03;5059127;28;51464;-46
2022/05/16 22:21:07;;;;;;;;;7.00;5.50;;;;;31.61;100.00;101340.13;5049738;28;51195;-46
2022/05/16 22:23:52;;;;;;;;;4.50;4.00;;;;;31.59;100.00;101333.91;5056294;28;51210;-50
2022/05/16 22:26:37;;;;;;;;;8.00;4.75;;;;;31.55;100.00;101322.28;5059026;28;51155;-51
2022/05/16 22:29:21;;;;;;;;;8.25;6.75;;;;;31.55;100.00;101327.78;5059425;28;51224;-46
2022/05/16 22:32:06;;;;;;;;;7.25;4.75;;;;;31.57;100.00;101331.28;5059062;28;51554;-47
2022/05/16 22:34:51;;;;;;;;;7.25;4.75;;;;;31.56;100.00;101318.53;5059038;28;51547;-48
2022/05/16 22:37:36;;;;;;;;;12.25;7.25;;;;;31.58;100.00;101324.78;5050396;28;51235;-49
2022/05/16 22:40:23;;;;;;;;;7.25;5.00;;;;;31.57;100.00;101314.78;5059347;28;51009;-49
2022/05/16 22:43:07;;;;;;;;;5.25;5.25;;;;;31.56;100.00;101315.78;5058820;28;51151;-48
2022/05/16 22:45:52;;;;;;;;;11.75;7.25;;;;;31.56;100.00;101313.03;5061926;28;51179;-46
2022/05/16 22:48:36;;;;;;;;;8.75;5.25;;;;;31.54;100.00;101306.78;5050270;28;51367;-47
2022/05/16 22:51:20;;;;;;;;;8.75;7.00;;;;;31.52;100.00;101303.31;5040089;28;51231;-48
2022/05/16 22:54:05;;;;;;;;;7.75;5.25;;;;;31.52;100.00;101301.41;5061601;28;51352;-49
2022/05/16 22:56:50;;;;;;;;;11.50;7.00;;;;;31.48;100.00;101288.06;5047142;28;51136;-51
2022/05/16 22:59:39;;;;;;;;;8.00;5.25;;;;;31.42;100.00;101289.44;5062061;28;51178;-50
2022/05/16 23:05:26;;;;;;;;;8.75;6.00;;;;;31.36;100.00;101288.06;5052576;28;51130;-45
2022/05/16 23:08:11;;;;;;;;;9.75;5.25;;;;;31.34;100.00;101292.81;5061904;28;51098;-49
2022/05/16 23:10:56;;;;;;;;;8.00;6.00;;;;;31.34;100.00;101287.31;5062288;28;51150;-50
2022/05/16 23:13:40;;;;;;;;;5.75;4.75;;;;;31.40;100.00;101290.59;5062599;28;51206;-51
2022/05/16 23:16:25;;;;;;;;;8.25;5.00;;;;;31.42;100.00;101283.94;5061908;28;51269;-46
2022/05/16 23:19:11;;;;;;;;;8.00;5.50;;;;;31.46;100.00;101287.31;5045606;28;51085;-49
2022/05/16 23:21:55;;;;;;;;;11.25;7.00;;;;;31.47;100.00;101289.06;5061995;28;51445;-45
2022/05/16 23:24:40;;;;;;;;;9.00;6.50;;;;;31.34;100.00;101261.72;5062058;28;51216;-44
2022/05/16 23:27:24;;;;;;;;;11.50;6.25;;;;;31.45;100.00;101286.44;5061428;28;51205;-48